sensor_id;sensor_type;location;lat;lon;timestamp;pressure;altitude;pressure_sealevel;temperature;humidity
13407;BME280;6774;48.208;10.766;2023-02-14T00:00:53;97362.47;;;1.70;88.38
13407;BME280;6774;48.208;10.766;2023-02-14T00:03:21;97358.78;;;1.74;88.02
13407;BME280;6774;48.208;10.766;2023-02-14T00:05:50;97360.44;;;1.75;87.21
13407;BME280;6774;48.208;10.766;2023-02-14T00:08:18;97364.53;;;1.79;86.64
13407;BME280;6774;48.208;10.766;2023-02-14T00:10:46;97369.00;;;1.77;86.75
13407;BME280;6774;48.208;10.766;2023-02-14T00:13:14;97369.94;;;1.76;86.98
13407;BME280;6774;48.208;10.766;2023-02-14T00:15:42;97366.31;;;1.79;86.79
13407;BME280;6774;48.208;10.766;2023-02-14T00:18:09;97360.59;;;1.72;87.28
13407;BME280;6774;48.208;10.766;2023-02-14T00:20:37;97365.47;;;1.78;87.31
13407;BME280;6774;48.208;10.766;2023-02-14T00:23:06;97363.44;;;1.83;87.10
13407;BME280;6774;48.208;10.766;2023-02-14T00:25:34;97366.88;;;1.84;87.43
13407;BME280;6774;48.208;10.766;2023-02-14T00:28:02;97365.47;;;1.78;86.62
13407;BME280;6774;48.208;10.766;2023-02-14T00:30:30;97367.13;;;1.79;86.50
13407;BME280;6774;48.208;10.766;2023-02-14T00:32:58;97367.97;;;1.80;85.78
13407;BME280;6774;48.208;10.766;2023-02-14T00:35:26;97368.16;;;1.77;86.35
13407;BME280;6774;48.208;10.766;2023-02-14T00:37:54;97371.78;;;1.74;86.77
13407;BME280;6774;48.208;10.766;2023-02-14T00:40:24;97364.50;;;1.65;85.89
13407;BME280;6774;48.208;10.766;2023-02-14T00:42:52;97366.84;;;1.54;85.79
13407;BME280;6774;48.208;10.766;2023-02-14T00:45:21;97363.09;;;1.43;85.89
13407;BME280;6774;48.208;10.766;2023-02-14T00:47:51;97360.91;;;1.36;86.31
13407;BME280;6774;48.208;10.766;2023-02-14T00:50:19;97365.13;;;1.38;85.76
13407;BME280;6774;48.208;10.766;2023-02-14T00:52:46;97368.66;;;1.37;86.48
13407;BME280;6774;48.208;10.766;2023-02-14T00:55:15;97363.28;;;1.40;86.35
13407;BME280;6774;48.208;10.766;2023-02-14T00:57:46;97367.47;;;1.43;87.49
13407;BME280;6774;48.208;10.766;2023-02-14T01:00:15;97374.41;;;1.42;87.12
13407;BME280;6774;48.208;10.766;2023-02-14T01:02:42;97373.56;;;1.58;87.10
13407;BME280;6774;48.208;10.766;2023-02-14T01:05:10;97374.22;;;1.61;86.45
13407;BME280;6774;48.208;10.766;2023-02-14T01:07:38;97372.13;;;1.52;86.81
13407;BME280;6774;48.208;10.766;2023-02-14T01:10:09;97379.81;;;1.39;86.57
13407;BME280;6774;48.208;10.766;2023-02-14T01:12:37;97379.81;;;1.39;87.02
13407;BME280;6774;48.208;10.766;2023-02-14T01:15:08;97382.50;;;1.38;86.89
13407;BME280;6774;48.208;10.766;2023-02-14T01:17:36;97376.78;;;1.31;86.75
13407;BME280;6774;48.208;10.766;2023-02-14T01:20:05;97373.44;;;1.29;87.13
13407;BME280;6774;48.208;10.766;2023-02-14T01:22:34;97372.94;;;1.38;87.78
13407;BME280;6774;48.208;10.766;2023-02-14T01:25:02;97377.34;;;1.36;86.68
13407;BME280;6774;48.208;10.766;2023-02-14T01:27:31;97380.47;;;1.27;87.08
13407;BME280;6774;48.208;10.766;2023-02-14T01:29:59;97381.56;;;1.23;87.33
13407;BME280;6774;48.208;10.766;2023-02-14T01:32:30;97382.91;;;1.30;87.77
13407;BME280;6774;48.208;10.766;2023-02-14T01:34:58;97379.13;;;1.36;86.60
13407;BME280;6774;48.208;10.766;2023-02-14T01:37:26;97367.03;;;1.35;86.63
13407;BME280;6774;48.208;10.766;2023-02-14T01:39:56;97379.28;;;1.33;87.04
13407;BME280;6774;48.208;10.766;2023-02-14T01:42:24;97373.25;;;1.32;85.77
13407;BME280;6774;48.208;10.766;2023-02-14T01:45:01;97373.75;;;1.23;86.25
13407;BME280;6774;48.208;10.766;2023-02-14T01:47:36;97373.25;;;1.17;87.39
13407;BME280;6774;48.208;10.766;2023-02-14T01:50:08;97381.81;;;1.19;87.49
13407;BME280;6774;48.208;10.766;2023-02-14T01:52:41;97375.44;;;1.24;87.81
13407;BME280;6774;48.208;10.766;2023-02-14T01:55:13;97375.25;;;1.27;87.32
13407;BME280;6774;48.208;10.766;2023-02-14T01:57:44;97372.09;;;1.22;86.98
13407;BME280;6774;48.208;10.766;2023-02-14T02:00:15;97375.94;;;1.15;86.51
13407;BME280;6774;48.208;10.766;2023-02-14T02:03:04;97377.19;;;1.08;87.21
13407;BME280;6774;48.208;10.766;2023-02-14T02:05:32;97366.03;;;1.06;86.67
13407;BME280;6774;48.208;10.766;2023-02-14T02:08:01;97372.16;;;1.05;86.90
13407;BME280;6774;48.208;10.766;2023-02-14T02:10:29;97375.59;;;1.05;87.16
13407;BME280;6774;48.208;10.766;2023-02-14T02:12:59;97368.72;;;1.04;87.42
13407;BME280;6774;48.208;10.766;2023-02-14T02:15:33;97365.28;;;1.04;87.31
13407;BME280;6774;48.208;10.766;2023-02-14T02:18:10;97367.91;;;1.04;88.03
13407;BME280;6774;48.208;10.766;2023-02-14T02:24:08;97369.16;;;1.12;88.15
13407;BME280;6774;48.208;10.766;2023-02-14T02:27:10;97358.75;;;1.28;87.56
13407;BME280;6774;48.208;10.766;2023-02-14T02:30:12;97351.28;;;1.22;86.84
13407;BME280;6774;48.208;10.766;2023-02-14T02:33:17;97351.84;;;1.27;87.03
13407;BME280;6774;48.208;10.766;2023-02-14T02:36:09;97346.09;;;1.22;86.36
13407;BME280;6774;48.208;10.766;2023-02-14T02:38:54;97345.16;;;1.23;85.91
13407;BME280;6774;48.208;10.766;2023-02-14T02:41:35;97343.56;;;1.21;85.90
13407;BME280;6774;48.208;10.766;2023-02-14T02:44:14;97348.88;;;1.19;86.03
13407;BME280;6774;48.208;10.766;2023-02-14T02:46:51;97354.41;;;1.13;86.56
13407;BME280;6774;48.208;10.766;2023-02-14T02:49:28;97353.78;;;1.08;86.58
13407;BME280;6774;48.208;10.766;2023-02-14T02:52:25;97358.84;;;1.11;86.52
13407;BME280;6774;48.208;10.766;2023-02-14T02:55:16;97370.25;;;1.24;86.77
13407;BME280;6774;48.208;10.766;2023-02-14T02:57:47;97365.63;;;1.13;86.02
13407;BME280;6774;48.208;10.766;2023-02-14T03:00:17;97370.59;;;1.02;86.42
13407;BME280;6774;48.208;10.766;2023-02-14T03:02:49;97373.34;;;0.99;86.58
13407;BME280;6774;48.208;10.766;2023-02-14T03:05:36;97366.72;;;0.94;87.00
13407;BME280;6774;48.208;10.766;2023-02-14T03:08:07;97364.22;;;0.92;86.57
13407;BME280;6774;48.208;10.766;2023-02-14T03:10:37;97378.97;;;0.92;86.31
13407;BME280;6774;48.208;10.766;2023-02-14T03:13:39;97377.03;;;0.95;86.88
13407;BME280;6774;48.208;10.766;2023-02-14T03:16:21;97374.56;;;0.76;86.51
13407;BME280;6774;48.208;10.766;2023-02-14T03:22:30;97374.13;;;0.68;86.88
13407;BME280;6774;48.208;10.766;2023-02-14T03:25:07;97366.97;;;0.73;87.42
13407;BME280;6774;48.208;10.766;2023-02-14T03:27:40;97364.50;;;0.70;87.71
13407;BME280;6774;48.208;10.766;2023-02-14T03:30:16;97366.03;;;0.74;87.25
13407;BME280;6774;48.208;10.766;2023-02-14T03:32:49;97367.72;;;0.75;86.98
13407;BME280;6774;48.208;10.766;2023-02-14T03:35:23;97358.97;;;0.76;87.37
13407;BME280;6774;48.208;10.766;2023-02-14T03:37:56;97362.81;;;0.69;87.20
13407;BME280;6774;48.208;10.766;2023-02-14T03:40:31;97366.19;;;0.71;87.25
13407;BME280;6774;48.208;10.766;2023-02-14T03:43:06;97357.94;;;0.63;88.16
13407;BME280;6774;48.208;10.766;2023-02-14T03:45:38;97353.78;;;0.76;88.09
13407;BME280;6774;48.208;10.766;2023-02-14T03:48:11;97358.59;;;0.84;87.86
13407;BME280;6774;48.208;10.766;2023-02-14T03:50:42;97353.53;;;0.65;87.92
13407;BME280;6774;48.208;10.766;2023-02-14T03:53:17;97348.25;;;0.67;87.27
13407;BME280;6774;48.208;10.766;2023-02-14T03:55:54;97357.72;;;0.68;86.67
13407;BME280;6774;48.208;10.766;2023-02-14T03:58:29;97354.84;;;0.72;86.64
13407;BME280;6774;48.208;10.766;2023-02-14T04:01:05;97360.13;;;0.71;86.47
13407;BME280;6774;48.208;10.766;2023-02-14T04:03:38;97378.09;;;0.75;87.15
13407;BME280;6774;48.208;10.766;2023-02-14T04:06:07;97377.94;;;0.78;87.16
13407;BME280;6774;48.208;10.766;2023-02-14T04:08:53;97374.41;;;0.79;87.15
13407;BME280;6774;48.208;10.766;2023-02-14T04:11:22;97372.06;;;0.75;87.17
13407;BME280;6774;48.208;10.766;2023-02-14T04:13:50;97373.88;;;0.73;86.82
13407;BME280;6774;48.208;10.766;2023-02-14T04:16:18;97368.78;;;0.71;86.96
13407;BME280;6774;48.208;10.766;2023-02-14T04:18:47;97366.34;;;0.68;87.13
13407;BME280;6774;48.208;10.766;2023-02-14T04:21:32;97366.22;;;0.54;86.54
13407;BME280;6774;48.208;10.766;2023-02-14T04:24:00;97356.09;;;0.49;86.67
13407;BME280;6774;48.208;10.766;2023-02-14T04:26:29;97356.63;;;0.56;88.00
13407;BME280;6774;48.208;10.766;2023-02-14T04:28:57;97356.75;;;0.53;87.45
13407;BME280;6774;48.208;10.766;2023-02-14T04:31:25;97354.75;;;0.58;87.19
13407;BME280;6774;48.208;10.766;2023-02-14T04:33:53;97362.47;;;0.60;86.60
13407;BME280;6774;48.208;10.766;2023-02-14T04:36:21;97361.81;;;0.56;87.38
13407;BME280;6774;48.208;10.766;2023-02-14T04:38:49;97358.44;;;0.54;86.86
13407;BME280;6774;48.208;10.766;2023-02-14T04:41:17;97364.47;;;0.54;87.47
13407;BME280;6774;48.208;10.766;2023-02-14T04:43:46;97355.69;;;0.57;88.34
13407;BME280;6774;48.208;10.766;2023-02-14T04:46:14;97364.06;;;0.62;88.17
13407;BME280;6774;48.208;10.766;2023-02-14T04:48:42;97370.88;;;0.65;87.70
13407;BME280;6774;48.208;10.766;2023-02-14T04:51:10;97363.00;;;0.66;86.96
13407;BME280;6774;48.208;10.766;2023-02-14T04:53:38;97370.88;;;0.65;86.97
13407;BME280;6774;48.208;10.766;2023-02-14T04:56:06;97363.22;;;0.62;86.99
13407;BME280;6774;48.208;10.766;2023-02-14T04:58:35;97364.75;;;0.66;86.10
13407;BME280;6774;48.208;10.766;2023-02-14T05:01:04;97363.84;;;0.67;85.98
13407;BME280;6774;48.208;10.766;2023-02-14T05:03:32;97352.75;;;0.63;85.59
13407;BME280;6774;48.208;10.766;2023-02-14T05:06:00;97358.38;;;0.55;85.82
13407;BME280;6774;48.208;10.766;2023-02-14T05:08:28;97349.75;;;0.55;86.37
13407;BME280;6774;48.208;10.766;2023-02-14T05:10:57;97350.63;;;0.54;87.06
13407;BME280;6774;48.208;10.766;2023-02-14T05:13:25;97339.66;;;0.49;87.48
13407;BME280;6774;48.208;10.766;2023-02-14T05:15:54;97343.84;;;0.51;87.20
13407;BME280;6774;48.208;10.766;2023-02-14T05:18:24;97343.53;;;0.57;86.64
13407;BME280;6774;48.208;10.766;2023-02-14T05:20:53;97344.38;;;0.58;87.46
13407;BME280;6774;48.208;10.766;2023-02-14T05:23:21;97339.84;;;0.62;87.07
13407;BME280;6774;48.208;10.766;2023-02-14T05:25:50;97339.00;;;0.61;86.35
13407;BME280;6774;48.208;10.766;2023-02-14T05:28:19;97339.09;;;0.60;85.76
13407;BME280;6774;48.208;10.766;2023-02-14T05:30:48;97340.84;;;0.59;86.75
13407;BME280;6774;48.208;10.766;2023-02-14T05:33:17;97349.56;;;0.58;86.50
13407;BME280;6774;48.208;10.766;2023-02-14T05:35:46;97340.00;;;0.59;86.45
13407;BME280;6774;48.208;10.766;2023-02-14T05:38:14;97345.53;;;0.52;86.38
13407;BME280;6774;48.208;10.766;2023-02-14T05:40:42;97341.03;;;0.56;86.26
13407;BME280;6774;48.208;10.766;2023-02-14T05:43:10;97341.03;;;0.56;86.02
13407;BME280;6774;48.208;10.766;2023-02-14T05:45:38;97346.38;;;0.53;86.19
13407;BME280;6774;48.208;10.766;2023-02-14T05:48:06;97350.88;;;0.49;85.18
13407;BME280;6774;48.208;10.766;2023-02-14T05:50:34;97343.81;;;0.36;85.64
13407;BME280;6774;48.208;10.766;2023-02-14T05:53:03;97346.81;;;0.28;85.03
13407;BME280;6774;48.208;10.766;2023-02-14T05:55:31;97348.13;;;0.19;84.96
13407;BME280;6774;48.208;10.766;2023-02-14T05:57:59;97353.47;;;0.16;85.80
13407;BME280;6774;48.208;10.766;2023-02-14T06:00:27;97334.72;;;0.11;86.10
13407;BME280;6774;48.208;10.766;2023-02-14T06:02:55;97341.56;;;0.12;84.91
13407;BME280;6774;48.208;10.766;2023-02-14T06:05:22;97343.41;;;0.10;84.81
13407;BME280;6774;48.208;10.766;2023-02-14T06:07:50;97343.34;;;0.12;86.09
13407;BME280;6774;48.208;10.766;2023-02-14T06:10:22;97340.88;;;0.09;85.49
13407;BME280;6774;48.208;10.766;2023-02-14T06:12:51;97345.56;;;0.02;86.03
13407;BME280;6774;48.208;10.766;2023-02-14T06:15:20;97338.69;;;0.01;86.73
13407;BME280;6774;48.208;10.766;2023-02-14T06:17:53;97345.84;;;-0.04;85.55
13407;BME280;6774;48.208;10.766;2023-02-14T06:20:22;97345.41;;;-0.12;85.69
13407;BME280;6774;48.208;10.766;2023-02-14T06:22:50;97345.66;;;-0.17;86.75
13407;BME280;6774;48.208;10.766;2023-02-14T06:25:20;97346.16;;;-0.10;86.74
13407;BME280;6774;48.208;10.766;2023-02-14T06:27:48;97350.66;;;-0.14;86.29
13407;BME280;6774;48.208;10.766;2023-02-14T06:30:17;97352.06;;;-0.07;86.12
13407;BME280;6774;48.208;10.766;2023-02-14T06:32:44;97348.25;;;0.01;86.66
13407;BME280;6774;48.208;10.766;2023-02-14T06:35:13;97358.66;;;-0.01;86.33
13407;BME280;6774;48.208;10.766;2023-02-14T06:37:41;97361.97;;;0.03;86.14
13407;BME280;6774;48.208;10.766;2023-02-14T06:40:11;97353.47;;;-0.01;84.40
13407;BME280;6774;48.208;10.766;2023-02-14T06:42:41;97359.00;;;-0.07;85.52
13407;BME280;6774;48.208;10.766;2023-02-14T06:45:09;97356.41;;;-0.07;85.52
13407;BME280;6774;48.208;10.766;2023-02-14T06:47:37;97360.50;;;-0.20;86.08
13407;BME280;6774;48.208;10.766;2023-02-14T06:50:06;97359.91;;;-0.43;85.88
13407;BME280;6774;48.208;10.766;2023-02-14T06:52:37;97361.13;;;-0.33;86.09
13407;BME280;6774;48.208;10.766;2023-02-14T06:55:05;97359.91;;;-0.25;86.02
13407;BME280;6774;48.208;10.766;2023-02-14T06:57:33;97353.63;;;-0.21;86.05
13407;BME280;6774;48.208;10.766;2023-02-14T07:00:03;97359.53;;;-0.35;85.99
13407;BME280;6774;48.208;10.766;2023-02-14T07:02:31;97361.28;;;-0.36;86.32
13407;BME280;6774;48.208;10.766;2023-02-14T07:04:59;97357.44;;;-0.29;85.51
13407;BME280;6774;48.208;10.766;2023-02-14T07:07:27;97362.50;;;-0.25;85.30
13407;BME280;6774;48.208;10.766;2023-02-14T07:09:55;97356.38;;;-0.42;86.00
13407;BME280;6774;48.208;10.766;2023-02-14T07:12:23;97357.31;;;-0.25;85.85
13407;BME280;6774;48.208;10.766;2023-02-14T07:14:50;97356.41;;;-0.24;85.56
13407;BME280;6774;48.208;10.766;2023-02-14T07:17:20;97349.34;;;-0.57;86.84
13407;BME280;6774;48.208;10.766;2023-02-14T07:19:48;97352.41;;;-0.32;86.36
13407;BME280;6774;48.208;10.766;2023-02-14T07:22:16;97358.81;;;-0.21;86.05
13407;BME280;6774;48.208;10.766;2023-02-14T07:24:44;97356.53;;;-0.10;87.21
13407;BME280;6774;48.208;10.766;2023-02-14T07:27:11;97351.22;;;-0.07;86.29
13407;BME280;6774;48.208;10.766;2023-02-14T07:29:40;97352.59;;;0.00;86.26
13407;BME280;6774;48.208;10.766;2023-02-14T07:32:08;97348.75;;;0.07;85.15
13407;BME280;6774;48.208;10.766;2023-02-14T07:34:37;97351.78;;;0.15;85.72
13407;BME280;6774;48.208;10.766;2023-02-14T07:37:05;97348.06;;;0.21;85.70
13407;BME280;6774;48.208;10.766;2023-02-14T07:39:34;97351.31;;;0.24;85.33
13407;BME280;6774;48.208;10.766;2023-02-14T07:42:02;97345.66;;;0.34;84.74
13407;BME280;6774;48.208;10.766;2023-02-14T07:44:31;97349.00;;;0.36;83.71
13407;BME280;6774;48.208;10.766;2023-02-14T07:46:58;97350.53;;;0.40;83.43
13407;BME280;6774;48.208;10.766;2023-02-14T07:49:26;97343.28;;;0.46;84.42
13407;BME280;6774;48.208;10.766;2023-02-14T07:51:56;97348.88;;;0.39;84.04
13407;BME280;6774;48.208;10.766;2023-02-14T07:54:24;97358.03;;;0.46;83.26
13407;BME280;6774;48.208;10.766;2023-02-14T07:56:52;97341.34;;;0.50;83.35
13407;BME280;6774;48.208;10.766;2023-02-14T07:59:20;97338.22;;;0.43;83.01
13407;BME280;6774;48.208;10.766;2023-02-14T08:01:51;97332.94;;;0.45;83.15
13407;BME280;6774;48.208;10.766;2023-02-14T08:04:19;97334.31;;;0.52;83.34
13407;BME280;6774;48.208;10.766;2023-02-14T08:06:46;97330.94;;;0.50;82.49
13407;BME280;6774;48.208;10.766;2023-02-14T08:09:16;97336.47;;;0.44;83.36
13407;BME280;6774;48.208;10.766;2023-02-14T08:11:50;97326.28;;;0.72;84.02
13407;BME280;6774;48.208;10.766;2023-02-14T08:14:35;97339.38;;;0.87;82.74
13407;BME280;6774;48.208;10.766;2023-02-14T08:17:03;97338.56;;;1.02;81.58
13407;BME280;6774;48.208;10.766;2023-02-14T08:19:32;97332.25;;;1.22;82.40
13407;BME280;6774;48.208;10.766;2023-02-14T08:22:01;97339.03;;;1.40;80.09
13407;BME280;6774;48.208;10.766;2023-02-14T08:24:30;97332.78;;;1.58;80.07
13407;BME280;6774;48.208;10.766;2023-02-14T08:26:58;97321.53;;;1.58;79.64
13407;BME280;6774;48.208;10.766;2023-02-14T08:29:26;97328.41;;;1.59;77.57
13407;BME280;6774;48.208;10.766;2023-02-14T08:31:54;97338.78;;;1.75;78.65
13407;BME280;6774;48.208;10.766;2023-02-14T08:34:26;97331.84;;;1.89;79.28
13407;BME280;6774;48.208;10.766;2023-02-14T08:36:54;97332.38;;;1.80;79.31
13407;BME280;6774;48.208;10.766;2023-02-14T08:39:22;97331.84;;;1.89;77.62
13407;BME280;6774;48.208;10.766;2023-02-14T08:41:51;97327.66;;;1.87;77.70
13407;BME280;6774;48.208;10.766;2023-02-14T08:44:19;97338.47;;;1.65;76.43
13407;BME280;6774;48.208;10.766;2023-02-14T08:46:47;97325.38;;;1.66;77.57
13407;BME280;6774;48.208;10.766;2023-02-14T08:49:15;97326.56;;;1.61;78.35
13407;BME280;6774;48.208;10.766;2023-02-14T08:51:43;97322.88;;;1.65;78.31
13407;BME280;6774;48.208;10.766;2023-02-14T08:54:11;97320.84;;;1.54;77.87
13407;BME280;6774;48.208;10.766;2023-02-14T08:56:39;97331.56;;;1.64;78.55
13407;BME280;6774;48.208;10.766;2023-02-14T08:59:08;97320.41;;;1.62;78.42
13407;BME280;6774;48.208;10.766;2023-02-14T09:01:36;97327.88;;;1.68;78.35
13407;BME280;6774;48.208;10.766;2023-02-14T09:04:04;97336.31;;;1.87;78.81
13407;BME280;6774;48.208;10.766;2023-02-14T09:06:36;97333.16;;;1.96;79.23
13407;BME280;6774;48.208;10.766;2023-02-14T09:09:04;97330.47;;;1.98;78.43
13407;BME280;6774;48.208;10.766;2023-02-14T09:11:32;97323.25;;;2.03;78.80
13407;BME280;6774;48.208;10.766;2023-02-14T09:14:01;97322.69;;;2.12;77.49
13407;BME280;6774;48.208;10.766;2023-02-14T09:16:30;97321.38;;;2.19;78.06
13407;BME280;6774;48.208;10.766;2023-02-14T09:18:58;97322.06;;;2.51;77.88
13407;BME280;6774;48.208;10.766;2023-02-14T09:21:27;97327.41;;;2.91;77.81
13407;BME280;6774;48.208;10.766;2023-02-14T09:23:56;97319.34;;;3.23;75.90
13407;BME280;6774;48.208;10.766;2023-02-14T09:26:25;97317.44;;;3.39;75.96
13407;BME280;6774;48.208;10.766;2023-02-14T09:28:55;97318.50;;;3.49;74.05
13407;BME280;6774;48.208;10.766;2023-02-14T09:31:24;97320.31;;;3.61;74.44
13407;BME280;6774;48.208;10.766;2023-02-14T09:33:53;97321.16;;;3.75;74.85
13407;BME280;6774;48.208;10.766;2023-02-14T09:36:39;97314.16;;;3.62;72.96
13407;BME280;6774;48.208;10.766;2023-02-14T09:39:07;97314.97;;;3.50;73.16
13407;BME280;6774;48.208;10.766;2023-02-14T09:42:01;97320.22;;;3.36;73.23
13407;BME280;6774;48.208;10.766;2023-02-14T09:44:32;97317.44;;;3.39;74.00
13407;BME280;6774;48.208;10.766;2023-02-14T09:47:06;97315.34;;;3.44;74.48
13407;BME280;6774;48.208;10.766;2023-02-14T09:49:39;97308.94;;;3.62;75.01
13407;BME280;6774;48.208;10.766;2023-02-14T09:52:11;97312.34;;;3.90;75.88
13407;BME280;6774;48.208;10.766;2023-02-14T09:54:46;97315.72;;;4.17;74.73
13407;BME280;6774;48.208;10.766;2023-02-14T09:57:22;97323.78;;;4.40;73.47
13407;BME280;6774;48.208;10.766;2023-02-14T09:59:56;97313.19;;;4.28;72.35
13407;BME280;6774;48.208;10.766;2023-02-14T10:02:37;97319.47;;;4.13;71.90
13407;BME280;6774;48.208;10.766;2023-02-14T10:05:10;97306.50;;;3.99;72.70
13407;BME280;6774;48.208;10.766;2023-02-14T10:07:52;97314.53;;;3.96;73.17
13407;BME280;6774;48.208;10.766;2023-02-14T10:10:25;97317.16;;;3.96;73.32
13407;BME280;6774;48.208;10.766;2023-02-14T10:13:00;97310.22;;;3.82;73.46
13407;BME280;6774;48.208;10.766;2023-02-14T10:15:32;97304.59;;;3.76;73.90
13407;BME280;6774;48.208;10.766;2023-02-14T10:18:04;97305.66;;;3.86;75.25
13407;BME280;6774;48.208;10.766;2023-02-14T10:20:39;97310.66;;;3.89;74.45
13407;BME280;6774;48.208;10.766;2023-02-14T10:23:19;97309.00;;;3.88;74.15
13407;BME280;6774;48.208;10.766;2023-02-14T10:25:55;97302.63;;;3.92;74.73
13407;BME280;6774;48.208;10.766;2023-02-14T10:28:30;97299.81;;;3.95;73.98
13407;BME280;6774;48.208;10.766;2023-02-14T10:31:16;97291.84;;;3.84;73.41
13407;BME280;6774;48.208;10.766;2023-02-14T10:33:52;97294.03;;;3.77;73.47
13407;BME280;6774;48.208;10.766;2023-02-14T10:36:46;97307.84;;;3.92;74.24
13407;BME280;6774;48.208;10.766;2023-02-14T10:39:33;97302.31;;;3.96;74.14
13407;BME280;6774;48.208;10.766;2023-02-14T10:42:14;97287.50;;;4.22;75.43
13407;BME280;6774;48.208;10.766;2023-02-14T10:44:52;97292.81;;;4.34;73.55
13407;BME280;6774;48.208;10.766;2023-02-14T10:47:30;97285.41;;;4.40;74.19
13407;BME280;6774;48.208;10.766;2023-02-14T10:50:10;97284.13;;;4.59;74.38
13407;BME280;6774;48.208;10.766;2023-02-14T10:52:47;97283.19;;;4.60;73.27
13407;BME280;6774;48.208;10.766;2023-02-14T10:55:21;97281.59;;;4.57;73.64
13407;BME280;6774;48.208;10.766;2023-02-14T10:58:01;97282.47;;;4.45;73.91
13407;BME280;6774;48.208;10.766;2023-02-14T11:00:32;97273.66;;;4.46;73.64
13407;BME280;6774;48.208;10.766;2023-02-14T11:03:05;97270.34;;;4.44;73.69
13407;BME280;6774;48.208;10.766;2023-02-14T11:05:37;97264.84;;;4.72;75.36
13407;BME280;6774;48.208;10.766;2023-02-14T11:08:16;97265.38;;;4.77;73.38
13407;BME280;6774;48.208;10.766;2023-02-14T11:10:45;97260.03;;;4.79;72.90
13407;BME280;6774;48.208;10.766;2023-02-14T11:13:30;97254.91;;;4.77;72.75
13407;BME280;6774;48.208;10.766;2023-02-14T11:15:59;97250.94;;;4.72;73.57
13407;BME280;6774;48.208;10.766;2023-02-14T11:18:30;97245.47;;;4.88;73.31
13407;BME280;6774;48.208;10.766;2023-02-14T11:21:07;97235.78;;;5.01;74.12
13407;BME280;6774;48.208;10.766;2023-02-14T11:23:39;97236.63;;;5.25;74.11
13407;BME280;6774;48.208;10.766;2023-02-14T11:26:13;97230.72;;;5.34;73.05
13407;BME280;6774;48.208;10.766;2023-02-14T11:28:46;97230.41;;;5.50;72.51
13407;BME280;6774;48.208;10.766;2023-02-14T11:31:24;97222.44;;;5.52;71.47
13407;BME280;6774;48.208;10.766;2023-02-14T11:33:52;97217.78;;;5.55;71.33
13407;BME280;6774;48.208;10.766;2023-02-14T11:36:20;97212.00;;;5.74;70.04
13407;BME280;6774;48.208;10.766;2023-02-14T11:38:59;97206.28;;;6.15;70.75
13407;BME280;6774;48.208;10.766;2023-02-14T11:41:45;97206.56;;;6.89;72.63
13407;BME280;6774;48.208;10.766;2023-02-14T11:44:16;97194.75;;;7.27;69.53
13407;BME280;6774;48.208;10.766;2023-02-14T11:46:49;97197.22;;;7.60;68.39
13407;BME280;6774;48.208;10.766;2023-02-14T11:49:28;97190.75;;;7.64;67.53
13407;BME280;6774;48.208;10.766;2023-02-14T11:51:58;97189.22;;;7.62;67.43
13407;BME280;6774;48.208;10.766;2023-02-14T11:54:33;97185.13;;;7.69;67.03
13407;BME280;6774;48.208;10.766;2023-02-14T11:57:07;97194.19;;;7.86;66.26
13407;BME280;6774;48.208;10.766;2023-02-14T11:59:41;97189.91;;;7.85;65.75
13407;BME280;6774;48.208;10.766;2023-02-14T12:02:20;97188.09;;;8.06;68.58
13407;BME280;6774;48.208;10.766;2023-02-14T12:04:51;97182.38;;;8.32;66.60
13407;BME280;6774;48.208;10.766;2023-02-14T12:07:25;97177.84;;;8.34;66.88
13407;BME280;6774;48.208;10.766;2023-02-14T12:10:22;97173.69;;;8.71;66.26
13407;BME280;6774;48.208;10.766;2023-02-14T12:12:53;97168.75;;;8.88;64.56
13407;BME280;6774;48.208;10.766;2023-02-14T12:15:27;97171.72;;;8.54;63.92
13407;BME280;6774;48.208;10.766;2023-02-14T12:18:05;97159.25;;;8.56;64.68
13407;BME280;6774;48.208;10.766;2023-02-14T12:20:44;97163.63;;;8.36;66.01
13407;BME280;6774;48.208;10.766;2023-02-14T12:23:19;97170.59;;;8.57;65.35
13407;BME280;6774;48.208;10.766;2023-02-14T12:25:56;97156.44;;;8.48;65.71
13407;BME280;6774;48.208;10.766;2023-02-14T12:28:28;97151.84;;;8.10;68.38
13407;BME280;6774;48.208;10.766;2023-02-14T12:30:57;97153.97;;;8.16;68.83
13407;BME280;6774;48.208;10.766;2023-02-14T12:33:26;97161.72;;;7.87;67.33
13407;BME280;6774;48.208;10.766;2023-02-14T12:35:59;97149.06;;;7.50;68.56
13407;BME280;6774;48.208;10.766;2023-02-14T12:38:39;97149.28;;;7.47;68.47
13407;BME280;6774;48.208;10.766;2023-02-14T12:41:20;97133.47;;;7.79;68.50
13407;BME280;6774;48.208;10.766;2023-02-14T12:43:53;97138.38;;;7.73;68.76
13407;BME280;6774;48.208;10.766;2023-02-14T12:46:43;97135.06;;;7.70;68.83
13407;BME280;6774;48.208;10.766;2023-02-14T12:49:37;97138.97;;;7.34;68.89
13407;BME280;6774;48.208;10.766;2023-02-14T12:52:32;97133.50;;;7.05;69.76
13407;BME280;6774;48.208;10.766;2023-02-14T12:55:32;97138.09;;;6.92;70.82
13407;BME280;6774;48.208;10.766;2023-02-14T12:58:11;97128.50;;;6.70;70.50
13407;BME280;6774;48.208;10.766;2023-02-14T13:00:48;97124.81;;;6.94;71.38
13407;BME280;6774;48.208;10.766;2023-02-14T13:03:34;97119.84;;;7.23;70.94
13407;BME280;6774;48.208;10.766;2023-02-14T13:06:12;97115.91;;;7.17;70.94
13407;BME280;6774;48.208;10.766;2023-02-14T13:09:00;97115.16;;;6.94;70.87
13407;BME280;6774;48.208;10.766;2023-02-14T13:11:38;97104.03;;;7.02;72.75
13407;BME280;6774;48.208;10.766;2023-02-14T13:14:27;97105.84;;;7.01;72.80
13407;BME280;6774;48.208;10.766;2023-02-14T13:17:08;97108.25;;;6.93;72.82
13407;BME280;6774;48.208;10.766;2023-02-14T13:19:43;97106.47;;;6.94;73.08
13407;BME280;6774;48.208;10.766;2023-02-14T13:22:17;97103.75;;;6.84;72.59
13407;BME280;6774;48.208;10.766;2023-02-14T13:24:49;97105.94;;;6.79;73.63
13407;BME280;6774;48.208;10.766;2023-02-14T13:27:21;97101.66;;;6.67;73.77
13407;BME280;6774;48.208;10.766;2023-02-14T13:29:53;97104.50;;;6.75;73.34
13407;BME280;6774;48.208;10.766;2023-02-14T13:32:25;97096.03;;;7.03;74.54
13407;BME280;6774;48.208;10.766;2023-02-14T13:34:56;97097.38;;;6.77;73.84
13407;BME280;6774;48.208;10.766;2023-02-14T13:37:25;97090.72;;;6.94;73.85
13407;BME280;6774;48.208;10.766;2023-02-14T13:39:57;97089.19;;;6.91;73.74
13407;BME280;6774;48.208;10.766;2023-02-14T13:42:49;97094.75;;;6.77;72.90
13407;BME280;6774;48.208;10.766;2023-02-14T13:48:34;97083.13;;;6.59;73.80